Time;durP1;ratioP1;P1;durP2;ratioP2;P2;SDS_P1;SDS_P2;PMS_P1;PMS_P2;Temp;Humidity;BMP_temperature;BMP_pressure;BME280_temperature;BME280_humidity;BME280_pressure;Samples;Min_cycle;Max_cycle;Signal;HPM_P1;HPM_P2
2023/12/31 00:01:55;;;;;;;2.15;1.83;;;3.30;99.90;;;;;;4995529;28;20222;-80
2023/12/31 00:04:23;;;;;;;2.75;2.10;;;3.30;99.90;;;;;;4995932;28;20209;-79
2023/12/31 00:06:50;;;;;;;3.03;1.90;;;3.20;99.90;;;;;;4996062;28;20226;-79
2023/12/31 00:09:16;;;;;;;2.20;2.00;;;3.20;99.90;;;;;;4993318;28;20223;-79
2023/12/31 00:11:43;;;;;;;2.65;1.95;;;3.10;99.90;;;;;;4993573;28;20254;-76
2023/12/31 00:14:10;;;;;;;2.75;2.33;;;3.10;99.90;;;;;;4994257;28;20232;-78
2023/12/31 04:32:40;;;;;;;2.30;2.10;;;3.40;99.90;;;;;;5098495;23;20798;-78
2023/12/31 04:35:06;;;;;;;2.35;2.15;;;3.30;99.90;;;;;;4972968;28;20581;-78
2023/12/31 04:37:33;;;;;;;3.58;2.30;;;3.20;99.90;;;;;;4974874;28;20299;-78
2023/12/31 04:40:01;;;;;;;3.53;2.33;;;3.20;99.90;;;;;;4974079;28;20211;-79
2023/12/31 04:42:27;;;;;;;2.95;2.13;;;3.10;99.90;;;;;;4974514;28;20229;-78
2023/12/31 04:44:54;;;;;;;1.55;1.45;;;3.10;99.90;;;;;;4974990;28;20631;-79
2023/12/31 04:47:21;;;;;;;1.60;1.50;;;3.00;99.90;;;;;;4974979;28;20221;-79
2023/12/31 04:49:49;;;;;;;2.60;2.22;;;3.00;99.90;;;;;;4974564;28;20295;-79
2023/12/31 04:52:16;;;;;;;2.70;2.05;;;2.90;99.90;;;;;;4974554;28;20251;-79
2023/12/31 04:54:42;;;;;;;2.30;2.05;;;2.90;99.90;;;;;;4974424;28;20225;-79
2023/12/31 04:57:09;;;;;;;2.60;2.22;;;2.90;99.90;;;;;;4975275;28;20232;-79
2023/12/31 04:59:36;;;;;;;2.00;1.70;;;2.90;99.90;;;;;;4974336;28;20214;-79
2023/12/31 05:02:03;;;;;;;2.35;1.75;;;2.90;99.90;;;;;;4973988;28;20231;-79
2023/12/31 05:04:30;;;;;;;2.20;1.92;;;2.90;99.90;;;;;;4974351;28;20280;-78
2023/12/31 05:06:59;;;;;;;2.90;1.75;;;3.00;99.90;;;;;;4974387;28;20210;-78
2023/12/31 05:09:25;;;;;;;1.60;1.50;;;3.00;99.90;;;;;;4974412;28;20208;-79
2023/12/31 05:11:52;;;;;;;3.13;2.60;;;3.00;99.90;;;;;;4974042;28;20233;-79
2023/12/31 05:14:19;;;;;;;2.20;2.00;;;3.00;99.90;;;;;;4977556;28;20224;-79
2023/12/31 05:16:46;;;;;;;2.20;1.70;;;2.90;99.90;;;;;;4976321;28;20216;-79
2023/12/31 05:19:13;;;;;;;1.63;1.45;;;2.90;99.90;;;;;;4977123;28;20214;-79
2023/12/31 05:21:40;;;;;;;1.75;1.60;;;2.90;99.90;;;;;;4976638;28;20235;-79
2023/12/31 05:24:08;;;;;;;2.22;2.00;;;2.80;99.90;;;;;;4977101;28;20270;-79
2023/12/31 05:26:35;;;;;;;2.17;1.95;;;2.90;99.90;;;;;;4977030;28;20210;-79
2023/12/31 05:29:02;;;;;;;3.97;2.35;;;2.80;99.90;;;;;;4974552;28;20629;-78
2023/12/31 05:31:28;;;;;;;3.20;2.13;;;2.80;99.90;;;;;;4968229;28;20230;-79
2023/12/31 05:33:56;;;;;;;2.67;1.95;;;2.70;99.90;;;;;;4956114;28;20225;-78
2023/12/31 05:36:22;;;;;;;1.92;1.63;;;2.70;99.90;;;;;;4956118;28;20256;-79
2023/12/31 05:38:49;;;;;;;2.20;1.92;;;2.70;99.90;;;;;;4955488;28;20211;-79
2023/12/31 05:41:17;;;;;;;2.55;2.10;;;2.60;99.90;;;;;;4955504;28;20237;-79
2023/12/31 05:43:44;;;;;;;2.20;1.60;;;2.60;99.90;;;;;;4955443;28;20706;-78
2023/12/31 05:46:10;;;;;;;2.15;1.92;;;2.60;99.90;;;;;;4954772;28;20210;-78
2023/12/31 05:48:38;;;;;;;1.85;1.33;;;2.60;99.90;;;;;;4955277;28;20212;-79
2023/12/31 05:51:05;;;;;;;2.60;1.88;;;2.60;99.90;;;;;;4954824;28;20239;-79
2023/12/31 05:53:32;;;;;;;2.42;1.83;;;2.60;99.90;;;;;;4954997;28;20227;-79
2023/12/31 05:55:58;;;;;;;2.20;2.00;;;2.60;99.90;;;;;;4954878;28;20221;-78
2023/12/31 05:58:26;;;;;;;2.08;1.88;;;2.50;99.90;;;;;;4954818;28;20305;-79
2023/12/31 06:00:53;;;;;;;1.67;1.58;;;2.50;99.90;;;;;;4954996;28;20234;-78
2023/12/31 06:03:20;;;;;;;2.88;1.00;;;2.50;99.90;;;;;;4955707;28;20290;-78
2023/12/31 06:05:47;;;;;;;1.85;1.70;;;2.50;99.90;;;;;;4955195;28;20564;-79
2023/12/31 06:08:13;;;;;;;3.97;1.60;;;2.40;99.90;;;;;;4955663;28;20216;-78
2023/12/31 06:10:40;;;;;;;1.60;1.50;;;2.40;99.90;;;;;;4955024;28;20233;-78
2023/12/31 06:13:07;;;;;;;3.55;2.28;;;2.50;99.90;;;;;;4954581;28;20703;-78
2023/12/31 06:15:35;;;;;;;2.70;2.53;;;2.50;99.90;;;;;;4955659;28;20210;-78
2023/12/31 06:18:01;;;;;;;3.10;2.40;;;2.50;99.90;;;;;;4954211;28;20217;-79
2023/12/31 06:20:28;;;;;;;2.40;2.05;;;2.40;99.90;;;;;;4953941;28;20221;-79
2023/12/31 06:22:55;;;;;;;2.60;2.13;;;2.50;99.90;;;;;;4959024;28;20636;-79
2023/12/31 06:25:22;;;;;;;1.65;1.55;;;2.50;99.90;;;;;;4958325;28;20254;-79
2023/12/31 06:27:49;;;;;;;2.00;1.80;;;2.60;99.90;;;;;;4957874;28;20221;-78
2023/12/31 06:30:16;;;;;;;3.33;1.83;;;2.60;99.90;;;;;;4960389;28;20215;-78
2023/12/31 06:32:44;;;;;;;2.20;1.60;;;2.60;99.90;;;;;;4990442;28;20599;-79
2023/12/31 06:35:11;;;;;;;2.88;1.83;;;2.70;99.90;;;;;;4989676;28;20345;-79
2023/12/31 06:37:38;;;;;;;3.40;2.30;;;2.70;99.90;;;;;;4996709;28;20212;-79
2023/12/31 06:40:06;;;;;;;3.80;1.90;;;2.70;99.90;;;;;;4995530;28;20207;-78
2023/12/31 06:42:33;;;;;;;1.70;1.50;;;2.70;99.90;;;;;;4997406;28;20224;-79
2023/12/31 06:44:59;;;;;;;1.80;1.40;;;2.80;99.90;;;;;;4996711;28;20221;-79
2023/12/31 06:47:26;;;;;;;3.08;1.85;;;2.70;99.90;;;;;;4997066;28;20209;-78
2023/12/31 06:49:54;;;;;;;6.22;1.75;;;2.80;99.90;;;;;;4996822;28;20217;-78
2023/12/31 06:52:21;;;;;;;2.58;1.50;;;2.80;99.90;;;;;;4997629;28;20231;-79
2023/12/31 06:54:48;;;;;;;1.98;1.55;;;2.80;99.90;;;;;;4998233;28;20224;-79
2023/12/31 06:57:14;;;;;;;3.40;1.85;;;2.90;99.90;;;;;;4997918;28;20215;-79
2023/12/31 06:59:41;;;;;;;0.95;0.90;;;2.90;99.90;;;;;;4997943;28;20219;-79
2023/12/31 07:02:08;;;;;;;3.25;1.80;;;2.90;99.90;;;;;;4997540;28;20795;-79
2023/12/31 07:04:35;;;;;;;1.30;1.20;;;3.00;99.90;;;;;;4998419;28;20204;-79
2023/12/31 07:07:03;;;;;;;2.13;1.90;;;3.10;99.90;;;;;;4998089;28;20232;-78
2023/12/31 07:09:30;;;;;;;1.75;1.50;;;3.20;99.90;;;;;;4997990;28;20212;-78
2023/12/31 07:11:57;;;;;;;1.60;1.40;;;3.40;99.90;;;;;;4997171;28;20312;-79
2023/12/31 07:14:24;;;;;;;1.73;1.63;;;3.60;99.90;;;;;;4997469;28;20313;-78
2023/12/31 07:16:51;;;;;;;1.92;1.30;;;3.80;99.90;;;;;;4993401;28;20588;-79
2023/12/31 07:19:17;;;;;;;2.05;1.42;;;4.00;99.90;;;;;;4994573;28;20226;-79
2023/12/31 07:21:45;;;;;;;1.80;1.70;;;4.20;99.90;;;;;;4992748;28;20297;-79
2023/12/31 07:24:13;;;;;;;1.67;1.30;;;4.40;99.90;;;;;;4993475;28;20317;-78
2023/12/31 07:26:40;;;;;;;2.00;1.23;;;4.40;99.90;;;;;;4994034;28;20211;-78
2023/12/31 07:29:07;;;;;;;1.80;1.27;;;4.60;99.90;;;;;;4995694;28;20208;-79
2023/12/31 07:31:35;;;;;;;1.50;1.30;;;4.60;99.90;;;;;;4992794;28;20238;-79
2023/12/31 07:34:02;;;;;;;1.73;1.35;;;4.70;99.90;;;;;;4995606;28;20242;-78
2023/12/31 07:36:29;;;;;;;1.40;1.20;;;4.90;99.90;;;;;;4996153;28;20273;-78
2023/12/31 07:38:55;;;;;;;2.20;1.55;;;5.00;99.90;;;;;;4991884;28;20203;-79
2023/12/31 07:41:24;;;;;;;1.85;1.70;;;5.10;99.90;;;;;;4995077;28;20609;-79
2023/12/31 07:43:50;;;;;;;2.65;1.55;;;5.20;99.90;;;;;;4996343;28;20211;-79
2023/12/31 07:46:17;;;;;;;1.80;1.25;;;5.20;99.90;;;;;;4998489;28;20203;-79
2023/12/31 07:48:44;;;;;;;2.45;1.58;;;5.40;99.90;;;;;;4994395;28;20668;-79
2023/12/31 07:51:10;;;;;;;1.60;1.50;;;5.40;99.90;;;;;;4995299;28;20234;-78
2023/12/31 07:53:37;;;;;;;1.85;1.50;;;5.50;99.90;;;;;;4993595;28;20218;-81
2023/12/31 07:56:05;;;;;;;1.63;1.42;;;5.60;99.90;;;;;;4993594;28;20399;-79
2023/12/31 07:58:34;;;;;;;1.67;1.52;;;5.70;99.90;;;;;;4996166;28;20222;-78
2023/12/31 08:01:02;;;;;;;2.55;1.20;;;5.70;99.90;;;;;;4995400;28;20223;-78
2023/12/31 08:03:29;;;;;;;2.92;1.52;;;5.70;99.90;;;;;;4996673;28;20211;-78
2023/12/31 08:05:55;;;;;;;4.30;1.48;;;5.80;99.90;;;;;;4996266;28;20324;-79
2023/12/31 08:08:22;;;;;;;2.60;1.92;;;5.90;99.90;;;;;;4996568;28;20207;-79
2023/12/31 08:10:49;;;;;;;1.80;1.70;;;5.90;99.90;;;;;;4995725;28;20302;-79
2023/12/31 08:13:16;;;;;;;1.75;1.27;;;6.00;99.90;;;;;;4995728;28;20238;-79
2023/12/31 08:15:44;;;;;;;1.60;1.40;;;6.00;99.90;;;;;;4995684;28;20231;-78
2023/12/31 08:18:11;;;;;;;3.15;1.25;;;6.10;99.90;;;;;;4994730;28;20302;-79
2023/12/31 08:20:37;;;;;;;2.20;1.20;;;6.20;99.90;;;;;;4995462;28;20742;-79
2023/12/31 08:23:04;;;;;;;1.70;1.45;;;6.30;99.90;;;;;;4993009;28;20212;-78
2023/12/31 08:25:31;;;;;;;1.75;1.65;;;6.40;99.90;;;;;;4992886;28;20580;-78
2023/12/31 08:27:58;;;;;;;3.08;1.67;;;6.40;99.90;;;;;;4987134;28;20585;-78
2023/12/31 08:30:25;;;;;;;1.48;1.30;;;6.50;99.90;;;;;;4988581;28;20644;-78
2023/12/31 08:32:53;;;;;;;1.83;1.60;;;6.50;99.90;;;;;;4993237;28;20223;-78
2023/12/31 08:35:22;;;;;;;1.27;1.00;;;6.50;99.90;;;;;;4991340;28;20231;-78
2023/12/31 08:37:49;;;;;;;1.27;1.17;;;6.50;99.90;;;;;;4992800;28;20210;-78
2023/12/31 08:40:16;;;;;;;1.60;1.50;;;6.60;99.90;;;;;;4994425;28;20211;-78
2023/12/31 08:42:42;;;;;;;2.28;1.20;;;6.60;99.90;;;;;;4991341;28;20211;-78
2023/12/31 08:45:10;;;;;;;1.33;1.23;;;6.60;99.90;;;;;;4989475;28;20204;-78
2023/12/31 08:47:37;;;;;;;1.35;1.23;;;6.60;99.90;;;;;;4999394;28;20203;-77
2023/12/31 08:50:09;;;;;;;1.70;1.60;;;6.60;99.90;;;;;;4997021;28;20231;-77
2023/12/31 08:52:37;;;;;;;2.33;1.40;;;6.60;99.90;;;;;;5000471;28;20227;-78
2023/12/31 08:55:07;;;;;;;2.13;1.60;;;6.60;99.90;;;;;;4996485;28;20310;-77
2023/12/31 08:57:34;;;;;;;1.40;1.30;;;6.60;99.90;;;;;;4994806;28;20318;-78
2023/12/31 09:00:01;;;;;;;1.30;1.20;;;6.70;99.90;;;;;;4992168;28;20208;-78
2023/12/31 09:02:27;;;;;;;1.98;1.52;;;6.70;99.90;;;;;;4992176;28;20234;-78
2023/12/31 09:04:54;;;;;;;2.47;2.28;;;6.80;99.90;;;;;;4992398;28;20676;-76
2023/12/31 09:07:22;;;;;;;1.67;1.42;;;6.90;99.90;;;;;;4991182;28;20203;-76
2023/12/31 09:09:49;;;;;;;1.83;1.30;;;7.00;99.90;;;;;;4991793;28;20691;-76
2023/12/31 09:12:16;;;;;;;1.50;1.40;;;7.10;99.90;;;;;;4988171;28;20234;-76
2023/12/31 09:14:42;;;;;;;1.15;1.05;;;7.20;99.90;;;;;;4985234;28;20230;-77
2023/12/31 09:17:09;;;;;;;1.67;1.30;;;7.30;99.90;;;;;;4983191;28;20698;-77
2023/12/31 09:19:36;;;;;;;2.05;1.30;;;7.40;99.90;;;;;;4985644;28;20203;-76
2023/12/31 09:22:03;;;;;;;1.40;1.30;;;7.60;99.90;;;;;;4982099;28;20254;-76
2023/12/31 09:24:32;;;;;;;1.58;1.20;;;7.70;99.90;;;;;;4985440;28;20212;-76
2023/12/31 09:26:59;;;;;;;1.77;1.60;;;7.70;99.90;;;;;;4995219;28;20303;-77
2023/12/31 09:29:25;;;;;;;1.80;1.40;;;7.80;99.90;;;;;;4989561;28;20219;-77
2023/12/31 09:31:52;;;;;;;2.17;1.77;;;7.60;99.90;;;;;;4994505;28;20316;-77
2023/12/31 09:34:19;;;;;;;1.70;1.00;;;7.60;99.90;;;;;;4985977;28;20224;-77
2023/12/31 09:36:46;;;;;;;1.42;1.23;;;7.60;99.90;;;;;;4988844;28;20571;-77
2023/12/31 09:39:13;;;;;;;1.10;1.00;;;7.60;99.90;;;;;;4991482;28;20207;-78
2023/12/31 09:41:42;;;;;;;1.52;1.40;;;7.60;99.90;;;;;;4991819;28;20225;-77
2023/12/31 09:44:09;;;;;;;1.60;1.50;;;7.60;99.90;;;;;;4991341;28;20694;-77
2023/12/31 09:46:39;;;;;;;1.75;1.40;;;7.60;99.90;;;;;;4992121;28;20291;-78
2023/12/31 09:49:07;;;;;;;1.60;1.50;;;7.80;99.90;;;;;;4988844;28;20212;-78
2023/12/31 09:51:35;;;;;;;2.35;1.73;;;8.10;99.90;;;;;;4991758;28;20233;-78
2023/12/31 09:54:05;;;;;;;1.60;1.27;;;8.80;99.90;;;;;;4991642;28;20206;-78
2023/12/31 09:56:32;;;;;;;1.73;1.20;;;9.40;99.90;;;;;;4993854;28;20230;-78
2023/12/31 09:59:02;;;;;;;4.63;1.85;;;10.20;99.90;;;;;;4990384;28;20593;-78
2023/12/31 10:01:31;;;;;;;1.17;1.08;;;10.70;99.90;;;;;;4993036;28;20226;-77
2023/12/31 10:03:59;;;;;;;1.60;1.50;;;11.00;99.90;;;;;;4994539;28;20210;-78
2023/12/31 10:06:27;;;;;;;2.30;1.73;;;11.40;99.90;;;;;;4996284;28;20207;-81
2023/12/31 10:08:57;;;;;;;2.60;1.40;;;11.50;99.90;;;;;;4994056;28;20313;-78
2023/12/31 10:11:24;;;;;;;1.90;1.65;;;11.20;99.90;;;;;;4996155;28;20227;-78
2023/12/31 10:13:51;;;;;;;1.65;1.30;;;10.70;99.90;;;;;;4996742;28;20203;-78
2023/12/31 10:16:19;;;;;;;2.33;1.60;;;10.20;99.90;;;;;;4995119;28;20274;-78
2023/12/31 10:18:46;;;;;;;1.88;1.45;;;9.90;99.90;;;;;;4995562;28;20223;-78
2023/12/31 10:21:12;;;;;;;2.28;1.73;;;9.70;99.90;;;;;;4989207;28;20656;-77
2023/12/31 10:23:39;;;;;;;1.90;1.70;;;9.40;99.90;;;;;;4994981;28;20845;-78
2023/12/31 10:26:06;;;;;;;2.53;1.83;;;9.20;99.90;;;;;;4995468;28;20202;-78
2023/12/31 10:28:33;;;;;;;3.28;2.00;;;9.00;99.90;;;;;;4995290;28;20772;-77
2023/12/31 10:31:00;;;;;;;3.45;1.80;;;8.90;99.90;;;;;;4990803;28;20242;-77
2023/12/31 10:33:29;;;;;;;2.22;1.55;;;8.90;99.90;;;;;;4993863;28;20572;-77
2023/12/31 10:36:04;;;;;;;3.22;1.98;;;8.90;99.90;;;;;;4991293;28;20230;-79
2023/12/31 10:38:44;;;;;;;1.55;1.35;;;8.90;99.90;;;;;;4989740;28;20305;-79
2023/12/31 10:41:14;;;;;;;2.22;1.80;;;8.80;99.90;;;;;;4993108;28;20230;-79
2023/12/31 10:43:41;;;;;;;1.92;1.50;;;8.80;99.90;;;;;;4996576;28;20282;-80
2023/12/31 10:46:08;;;;;;;2.60;2.10;;;8.90;99.90;;;;;;4996774;28;20211;-80
2023/12/31 10:48:42;;;;;;;2.30;2.10;;;9.00;99.90;;;;;;4996841;28;20240;-80
2023/12/31 10:51:12;;;;;;;2.05;1.52;;;9.10;99.90;;;;;;4992814;28;20226;-78
2023/12/31 10:53:42;;;;;;;1.55;1.45;;;9.20;99.90;;;;;;4996382;28;20214;-80
2023/12/31 10:56:12;;;;;;;1.40;1.30;;;9.30;99.90;;;;;;4993332;28;20727;-81
2023/12/31 10:58:40;;;;;;;3.88;1.67;;;9.60;99.90;;;;;;4996792;28;20210;-79
2023/12/31 11:01:07;;;;;;;3.30;2.30;;;9.70;99.90;;;;;;4992151;28;20234;-78
2023/12/31 11:03:37;;;;;;;3.90;2.40;;;10.00;99.90;;;;;;4996260;28;20229;-79
2023/12/31 11:06:05;;;;;;;4.90;2.08;;;10.20;99.90;;;;;;4999112;28;20210;-80
2023/12/31 11:08:34;;;;;;;4.00;2.60;;;10.30;99.90;;;;;;4990565;28;20222;-80
2023/12/31 11:11:01;;;;;;;2.90;2.00;;;10.40;99.90;;;;;;4988820;28;20604;-81
2023/12/31 11:13:28;;;;;;;1.75;1.65;;;10.30;99.90;;;;;;4992766;28;20259;-81
2023/12/31 11:15:58;;;;;;;1.70;1.60;;;10.10;99.90;;;;;;4995093;28;20309;-83
2023/12/31 11:18:43;;;;;;;2.05;1.80;;;9.90;99.90;;;;;;4993496;28;20650;-80
2023/12/31 11:21:22;;;;;;;2.20;1.60;;;9.70;99.90;;;;;;4991166;28;20295;-83
2023/12/31 11:24:02;;;;;;;2.30;1.50;;;9.50;99.90;;;;;;4992505;28;20206;-83
2023/12/31 11:26:29;;;;;;;2.50;2.15;;;9.40;99.90;;;;;;4989821;28;20239;-81
2023/12/31 11:28:56;;;;;;;1.70;1.30;;;9.30;99.90;;;;;;4996937;28;20199;-84
2023/12/31 11:31:23;;;;;;;2.05;1.75;;;9.30;99.90;;;;;;4993403;28;20243;-81
2023/12/31 11:33:51;;;;;;;1.63;1.42;;;9.40;99.90;;;;;;4997301;28;20206;-79
2023/12/31 11:36:18;;;;;;;2.35;1.42;;;9.40;99.90;;;;;;4996066;28;20231;-78
2023/12/31 11:39:06;;;;;;;1.27;1.17;;;9.40;99.90;;;;;;4995207;28;20651;-78
2023/12/31 11:41:33;;;;;;;1.90;1.40;;;9.40;99.90;;;;;;4995682;28;20321;-77
2023/12/31 11:44:01;;;;;;;1.40;1.30;;;9.40;99.90;;;;;;4995843;28;20221;-78
2023/12/31 11:46:38;;;;;;;2.17;1.95;;;9.40;99.90;;;;;;4995389;28;20253;-77
2023/12/31 11:49:10;;;;;;;1.67;1.58;;;9.40;99.90;;;;;;4991221;28;20278;-78
2023/12/31 11:51:57;;;;;;;1.40;1.30;;;9.30;99.90;;;;;;4994822;28;20239;-77
2023/12/31 11:54:27;;;;;;;1.45;1.15;;;9.00;99.90;;;;;;4992645;28;20214;-78
2023/12/31 11:56:54;;;;;;;1.52;1.35;;;8.80;99.90;;;;;;4988592;28;20225;-77
2023/12/31 11:59:22;;;;;;;1.77;1.33;;;8.60;99.90;;;;;;4982510;28;20293;-78
2023/12/31 12:01:49;;;;;;;1.35;1.10;;;8.50;99.90;;;;;;4984107;28;20303;-77
2023/12/31 12:04:17;;;;;;;1.23;1.05;;;8.40;99.90;;;;;;4979693;28;20216;-77
2023/12/31 12:06:45;;;;;;;1.33;1.15;;;8.30;99.90;;;;;;4981982;28;20263;-77
2023/12/31 12:09:12;;;;;;;1.50;1.02;;;8.20;99.90;;;;;;4993070;28;20682;-78
2023/12/31 12:11:43;;;;;;;1.40;1.20;;;8.10;99.90;;;;;;4993257;28;20730;-77
2023/12/31 12:14:15;;;;;;;1.52;1.15;;;8.10;99.90;;;;;;4987764;28;20664;-78
2023/12/31 12:16:42;;;;;;;1.45;1.17;;;8.10;99.90;;;;;;4992284;28;20283;-80
2023/12/31 12:19:10;;;;;;;1.35;1.05;;;8.10;99.90;;;;;;4995702;28;20216;-80
2023/12/31 12:21:41;;;;;;;1.00;0.90;;;8.00;99.90;;;;;;4988107;28;20644;-77
2023/12/31 12:24:20;;;;;;;1.00;0.90;;;7.90;99.90;;;;;;4980161;28;20260;-77
2023/12/31 12:26:51;;;;;;;1.33;1.23;;;7.80;99.90;;;;;;4984829;28;20235;-77
2023/12/31 12:29:21;;;;;;;1.30;1.20;;;7.80;99.90;;;;;;4980055;28;20219;-77
2023/12/31 12:31:56;;;;;;;2.50;0.88;;;7.70;99.90;;;;;;4991851;28;20255;-80
2023/12/31 12:34:32;;;;;;;1.52;0.93;;;7.60;99.90;;;;;;4981783;28;20287;-77
2023/12/31 12:37:01;;;;;;;1.70;0.90;;;7.60;99.90;;;;;;4988440;28;20595;-78
2023/12/31 12:39:28;;;;;;;0.95;0.85;;;7.60;99.90;;;;;;4990504;28;20216;-77
2023/12/31 12:41:56;;;;;;;1.00;0.70;;;7.50;99.90;;;;;;4986287;28;20246;-77
2023/12/31 12:44:30;;;;;;;0.90;0.80;;;7.40;99.90;;;;;;4987356;28;20216;-78
2023/12/31 12:47:00;;;;;;;1.05;0.90;;;7.40;99.90;;;;;;4987887;28;20652;-77
2023/12/31 12:49:27;;;;;;;2.13;1.30;;;7.40;99.90;;;;;;4994177;28;20615;-78
2023/12/31 12:51:55;;;;;;;1.45;0.90;;;7.30;99.90;;;;;;4988242;28;20590;-76
2023/12/31 12:54:29;;;;;;;1.35;1.20;;;7.40;99.90;;;;;;4979662;28;20215;-79
2023/12/31 12:56:56;;;;;;;1.08;0.98;;;7.30;99.90;;;;;;4993985;28;20247;-78
2023/12/31 12:59:28;;;;;;;1.10;1.00;;;7.20;99.90;;;;;;4982589;28;20296;-76
2023/12/31 13:01:55;;;;;;;1.02;0.88;;;7.20;99.90;;;;;;4980923;28;20235;-77
2023/12/31 13:04:28;;;;;;;1.08;0.98;;;7.20;99.90;;;;;;4982944;28;20287;-80
2023/12/31 13:06:58;;;;;;;1.00;0.90;;;7.10;99.90;;;;;;4991611;28;20207;-78
2023/12/31 13:09:26;;;;;;;0.80;0.80;;;7.10;99.90;;;;;;4992166;28;20209;-77
2023/12/31 13:11:53;;;;;;;1.73;0.90;;;7.10;99.90;;;;;;4992403;28;20238;-78
2023/12/31 13:14:20;;;;;;;1.02;0.90;;;7.00;99.90;;;;;;4992243;28;20653;-77
2023/12/31 13:16:47;;;;;;;1.00;0.80;;;7.00;99.90;;;;;;4992742;28;20223;-79
2023/12/31 13:19:14;;;;;;;1.05;0.80;;;6.90;99.90;;;;;;4993537;28;20212;-79
2023/12/31 13:21:41;;;;;;;0.98;0.88;;;6.90;99.90;;;;;;4992613;28;20285;-77
2023/12/31 13:24:09;;;;;;;2.17;1.00;;;6.90;99.90;;;;;;4978308;28;20239;-79
2023/12/31 13:26:37;;;;;;;1.00;0.90;;;6.80;99.90;;;;;;4985841;28;20664;-79
2023/12/31 13:29:04;;;;;;;1.10;1.00;;;6.80;99.90;;;;;;4986197;28;20211;-79
2023/12/31 13:31:32;;;;;;;1.42;1.02;;;6.80;99.90;;;;;;4980151;28;20743;-79
2023/12/31 13:33:59;;;;;;;1.00;0.90;;;6.70;99.90;;;;;;4988631;28;20210;-79
2023/12/31 13:36:29;;;;;;;1.23;0.93;;;6.80;99.90;;;;;;4984959;28;20283;-79
2023/12/31 13:38:57;;;;;;;1.90;0.88;;;6.70;99.90;;;;;;4993108;28;20665;-78
2023/12/31 13:41:25;;;;;;;1.10;1.00;;;6.70;99.90;;;;;;4994120;28;20242;-79
2023/12/31 13:43:54;;;;;;;1.77;1.30;;;6.70;99.90;;;;;;4993618;28;20317;-79
2023/12/31 13:46:21;;;;;;;0.95;0.85;;;6.60;99.90;;;;;;4981118;28;20736;-78
2023/12/31 13:48:48;;;;;;;1.25;0.95;;;6.60;99.90;;;;;;4980050;28;20246;-78
2023/12/31 13:51:16;;;;;;;1.33;1.08;;;6.60;99.90;;;;;;4977176;28;20247;-79
2023/12/31 13:53:43;;;;;;;2.55;1.40;;;6.50;99.90;;;;;;4977835;28;20217;-79
2023/12/31 13:56:10;;;;;;;1.30;0.95;;;6.50;99.90;;;;;;4977040;28;20593;-79
2023/12/31 13:58:40;;;;;;;1.90;1.52;;;6.50;99.90;;;;;;4992039;28;20605;-78
2023/12/31 14:01:09;;;;;;;2.55;1.58;;;6.50;99.90;;;;;;4988359;28;20241;-79
2023/12/31 14:03:36;;;;;;;2.03;1.63;;;6.60;99.90;;;;;;4993981;28;20208;-78
2023/12/31 14:06:04;;;;;;;2.40;2.10;;;6.50;99.90;;;;;;4994283;28;20209;-79
2023/12/31 14:08:31;;;;;;;1.67;1.52;;;6.40;99.90;;;;;;4993542;28;20208;-79
2023/12/31 14:10:58;;;;;;;1.65;1.50;;;6.50;99.90;;;;;;4984877;28;20672;-79
2023/12/31 14:13:26;;;;;;;1.17;1.08;;;6.40;99.90;;;;;;4981263;28;20267;-79
2023/12/31 14:15:53;;;;;;;1.50;1.40;;;6.40;99.90;;;;;;4993123;28;20231;-79
2023/12/31 14:18:21;;;;;;;1.52;1.42;;;6.40;99.90;;;;;;4983486;28;20203;-79
2023/12/31 14:20:48;;;;;;;1.30;1.10;;;6.40;99.90;;;;;;4992344;28;20238;-77
2023/12/31 14:23:15;;;;;;;2.17;1.10;;;6.40;99.90;;;;;;4987780;28;20211;-78
2023/12/31 14:25:55;;;;;;;1.38;1.27;;;6.30;99.90;;;;;;4993786;28;20234;-79
2023/12/31 14:28:30;;;;;;;1.10;1.00;;;6.30;99.90;;;;;;4989310;28;20215;-79
2023/12/31 14:31:10;;;;;;;2.08;1.15;;;6.30;99.90;;;;;;4986124;28;20298;-78
2023/12/31 14:33:58;;;;;;;1.15;1.05;;;6.30;99.90;;;;;;4994742;28;20239;-78
2023/12/31 14:36:25;;;;;;;1.38;1.05;;;6.20;99.90;;;;;;4998100;28;20233;-78
2023/12/31 14:39:05;;;;;;;0.98;0.88;;;6.10;99.90;;;;;;4983386;28;20249;-79
2023/12/31 14:41:38;;;;;;;1.25;1.00;;;6.20;99.90;;;;;;4988864;28;20322;-78
2023/12/31 14:44:12;;;;;;;1.08;0.95;;;6.10;99.90;;;;;;4987091;28;20573;-78
2023/12/31 14:46:48;;;;;;;1.40;1.20;;;6.10;99.90;;;;;;4983586;28;20208;-78
2023/12/31 14:49:27;;;;;;;1.73;0.80;;;6.10;99.90;;;;;;4984867;28;20219;-78
2023/12/31 14:51:55;;;;;;;1.10;1.00;;;6.20;99.90;;;;;;4980571;28;20523;-78
2023/12/31 14:54:25;;;;;;;0.80;0.80;;;6.00;99.90;;;;;;4985928;28;20221;-78
2023/12/31 14:57:01;;;;;;;1.00;0.90;;;6.10;99.90;;;;;;4996989;28;20314;-78
2023/12/31 14:59:30;;;;;;;1.13;0.90;;;6.10;99.90;;;;;;4992040;28;20743;-78
2023/12/31 15:01:58;;;;;;;1.27;0.90;;;6.10;99.90;;;;;;4980302;28;20227;-78
2023/12/31 15:04:42;;;;;;;1.33;1.00;;;6.00;99.90;;;;;;4981397;28;20243;-78
2023/12/31 15:07:12;;;;;;;1.30;1.00;;;6.00;99.90;;;;;;4984851;28;20200;-79
2023/12/31 15:09:43;;;;;;;0.95;0.70;;;6.00;99.90;;;;;;5002383;28;20298;-79
2023/12/31 15:12:24;;;;;;;1.10;0.85;;;6.00;99.90;;;;;;4990407;28;20232;-78
2023/12/31 15:15:33;;;;;;;0.90;0.80;;;6.00;99.90;;;;;;5000508;28;20211;-78
2023/12/31 15:18:47;;;;;;;0.80;0.70;;;5.90;99.90;;;;;;4995816;28;20231;-78
2023/12/31 15:21:36;;;;;;;1.85;1.10;;;5.90;99.90;;;;;;4990673;28;20231;-78
2023/12/31 15:24:08;;;;;;;1.45;1.00;;;5.90;99.90;;;;;;4988239;28;20215;-78
2023/12/31 15:26:35;;;;;;;1.00;0.90;;;5.90;99.90;;;;;;4997278;28;20230;-79
2023/12/31 15:29:02;;;;;;;1.38;0.80;;;5.90;99.90;;;;;;4992788;28;20392;-79
2023/12/31 15:31:31;;;;;;;1.65;1.05;;;5.80;99.90;;;;;;4982714;28;20314;-78
2023/12/31 15:34:00;;;;;;;1.48;1.05;;;5.80;99.90;;;;;;4994881;28;20211;-79
2023/12/31 15:36:32;;;;;;;0.70;0.60;;;5.80;99.90;;;;;;4996590;28;20223;-78
2023/12/31 15:38:59;;;;;;;1.00;0.90;;;5.80;99.90;;;;;;4995634;28;20224;-78
2023/12/31 15:41:38;;;;;;;1.20;1.10;;;5.80;99.90;;;;;;5053341;23;20229;-78
2023/12/31 15:44:11;;;;;;;1.00;0.90;;;5.80;99.90;;;;;;5038124;28;20581;-79
2023/12/31 15:46:41;;;;;;;1.23;1.00;;;5.80;99.90;;;;;;5035692;28;20202;-79
2023/12/31 15:49:09;;;;;;;0.80;0.70;;;5.80;99.90;;;;;;5027322;28;20210;-79
2023/12/31 15:51:37;;;;;;;0.90;0.90;;;5.80;99.90;;;;;;5034895;28;20230;-79
2023/12/31 15:54:04;;;;;;;1.58;1.35;;;5.80;99.90;;;;;;5028797;28;20285;-80
2023/12/31 15:56:31;;;;;;;2.90;1.70;;;5.80;99.90;;;;;;5028150;28;20219;-79
2023/12/31 15:58:58;;;;;;;1.27;1.00;;;5.80;99.90;;;;;;5034348;28;20208;-79
2023/12/31 16:01:27;;;;;;;1.75;0.80;;;5.80;99.90;;;;;;5032787;28;20222;-79
2023/12/31 16:03:54;;;;;;;1.23;1.05;;;5.80;99.90;;;;;;5033989;28;20622;-79
2023/12/31 16:06:20;;;;;;;2.90;2.30;;;5.70;99.90;;;;;;5036532;28;20532;-80
2023/12/31 16:08:49;;;;;;;1.10;1.00;;;5.80;99.90;;;;;;5038969;28;20206;-81
2023/12/31 16:11:16;;;;;;;1.02;0.90;;;5.70;99.90;;;;;;5038665;28;20229;-78
2023/12/31 16:13:43;;;;;;;1.58;1.33;;;5.70;99.90;;;;;;5031032;28;20628;-78
2023/12/31 16:16:11;;;;;;;1.10;1.00;;;5.70;99.90;;;;;;5032322;28;20225;-79
2023/12/31 16:18:41;;;;;;;1.17;1.02;;;5.80;99.90;;;;;;5035695;28;20210;-79
2023/12/31 16:21:07;;;;;;;1.10;1.00;;;5.80;99.90;;;;;;5028705;28;20723;-79
2023/12/31 16:23:35;;;;;;;1.77;1.00;;;5.80;99.90;;;;;;5039666;28;20210;-79
2023/12/31 16:26:14;;;;;;;1.13;0.90;;;5.80;99.90;;;;;;5036858;28;20216;-80
2023/12/31 16:28:41;;;;;;;1.02;0.88;;;5.70;99.90;;;;;;5036550;28;20707;-79
2023/12/31 16:31:21;;;;;;;0.80;0.75;;;5.70;99.90;;;;;;5035477;28;20230;-79
2023/12/31 16:33:50;;;;;;;0.80;0.70;;;5.70;99.90;;;;;;5036864;28;20221;-79
2023/12/31 16:36:19;;;;;;;1.40;0.90;;;5.60;99.90;;;;;;5036470;28;20206;-79
2023/12/31 16:38:46;;;;;;;2.55;0.95;;;5.50;99.90;;;;;;5036728;28;20206;-79
2023/12/31 16:41:16;;;;;;;0.90;0.80;;;5.50;99.90;;;;;;5038049;28;20237;-79
2023/12/31 16:43:43;;;;;;;0.93;0.80;;;5.50;99.90;;;;;;5031166;28;20219;-79
2023/12/31 16:46:10;;;;;;;0.80;0.77;;;5.50;99.90;;;;;;5033957;28;20217;-78
2023/12/31 16:48:37;;;;;;;1.25;1.10;;;5.40;99.90;;;;;;5031161;28;20702;-78
2023/12/31 16:51:04;;;;;;;1.55;0.98;;;5.40;99.90;;;;;;5020258;28;20310;-78
2023/12/31 16:53:30;;;;;;;1.10;0.90;;;5.40;99.90;;;;;;5030080;28;20236;-79
2023/12/31 16:55:58;;;;;;;1.65;1.10;;;5.40;99.90;;;;;;5030462;28;20583;-79
2023/12/31 16:58:26;;;;;;;1.60;1.00;;;5.40;99.90;;;;;;5033152;28;20263;-79
2023/12/31 17:00:53;;;;;;;1.20;1.10;;;5.40;99.90;;;;;;5033085;28;20233;-78
2023/12/31 17:03:20;;;;;;;6.50;3.10;;;5.30;99.90;;;;;;5033404;28;20324;-78
2023/12/31 17:05:51;;;;;;;2.95;2.55;;;5.40;99.90;;;;;;5034940;28;20213;-78
2023/12/31 17:08:17;;;;;;;1.23;1.13;;;5.40;99.90;;;;;;5035344;28;20644;-79
2023/12/31 17:10:44;;;;;;;1.90;0.88;;;5.30;99.90;;;;;;5037025;28;20230;-79
2023/12/31 17:13:11;;;;;;;1.00;0.90;;;5.30;99.90;;;;;;5037468;28;20236;-79
2023/12/31 17:15:39;;;;;;;1.60;1.30;;;5.30;99.90;;;;;;5038382;28;20220;-78
2023/12/31 17:18:06;;;;;;;1.45;1.23;;;5.30;99.90;;;;;;5035304;28;20785;-78
2023/12/31 17:20:33;;;;;;;1.52;1.20;;;5.30;99.90;;;;;;5037803;28;20269;-79
2023/12/31 17:23:00;;;;;;;0.98;0.80;;;5.30;99.90;;;;;;5037847;28;20206;-79